createdAt,value
2022-07-26T00:01:39.846Z,6.72
2022-07-26T00:04:07.850Z,7.07
2022-07-26T00:06:34.974Z,6.78
2022-07-26T00:09:02.120Z,6.95
2022-07-26T00:11:30.527Z,7.40
2022-07-26T00:13:57.635Z,7.07
2022-07-26T00:16:24.648Z,7.20
2022-07-26T00:18:51.551Z,7.03
2022-07-26T00:21:18.723Z,7.10
2022-07-26T00:23:45.680Z,7.35
2022-07-26T00:26:12.993Z,7.47
2022-07-26T00:28:41.430Z,6.70
2022-07-26T00:31:09.133Z,7.32
2022-07-26T00:33:36.158Z,7.32
2022-07-26T00:36:03.766Z,7.60
2022-07-26T00:38:30.774Z,8.00
2022-07-26T00:40:58.984Z,7.38
2022-07-26T00:43:26.074Z,7.55
2022-07-26T00:45:53.073Z,6.65
2022-07-26T00:48:20.075Z,7.30
2022-07-26T00:50:47.839Z,7.03
2022-07-26T00:53:14.757Z,6.90
2022-07-26T00:55:42.281Z,7.18
2022-07-26T00:58:09.347Z,6.82
2022-07-26T01:00:36.427Z,7.47
2022-07-26T01:03:03.525Z,7.40
2022-07-26T01:05:31.679Z,6.95
2022-07-26T01:07:59.014Z,7.82
2022-07-26T01:10:26.003Z,7.28
2022-07-26T01:12:53.198Z,7.38
2022-07-26T01:15:20.442Z,7.70
2022-07-26T01:17:47.486Z,7.72
2022-07-26T01:20:14.925Z,7.65
2022-07-26T01:22:41.993Z,7.43
2022-07-26T01:25:09.494Z,7.72
2022-07-26T01:27:39.625Z,7.40
2022-07-26T01:30:10.275Z,7.70
2022-07-26T01:32:37.818Z,7.20
2022-07-26T01:35:06.149Z,6.80
2022-07-26T01:37:33.007Z,7.32
2022-07-26T01:40:00.062Z,7.07
2022-07-26T01:42:26.951Z,6.97
2022-07-26T01:44:53.835Z,7.35
2022-07-26T01:47:21.509Z,7.20
2022-07-26T01:49:48.696Z,7.25
2022-07-26T01:52:15.543Z,7.07
2022-07-26T01:54:42.818Z,7.63
2022-07-26T01:57:09.788Z,7.22
2022-07-26T01:59:36.678Z,7.53
2022-07-26T02:02:03.799Z,7.22
2022-07-26T02:04:49.396Z,8.05
2022-07-26T02:07:16.514Z,7.10
2022-07-26T02:09:44.156Z,7.40
2022-07-26T02:12:11.001Z,7.50
2022-07-26T02:14:38.035Z,7.47
2022-07-26T02:17:05.113Z,6.97
2022-07-26T02:19:32.016Z,7.68
2022-07-26T02:21:59.602Z,7.15
2022-07-26T02:24:29.871Z,6.93
2022-07-26T02:27:00.985Z,7.63
2022-07-26T02:29:28.446Z,7.55
2022-07-26T02:31:56.295Z,7.68
2022-07-26T02:34:23.956Z,7.75
2022-07-26T02:36:51.092Z,7.70
2022-07-26T02:39:18.040Z,7.47
2022-07-26T02:41:45.232Z,7.55
2022-07-26T02:44:13.014Z,7.25
2022-07-26T02:46:40.186Z,8.02
2022-07-26T02:49:07.238Z,7.63
2022-07-26T02:51:34.436Z,7.55
2022-07-26T02:54:01.515Z,7.13
2022-07-26T02:56:28.554Z,7.28
2022-07-26T02:58:55.709Z,7.35
2022-07-26T03:01:22.644Z,7.03
2022-07-26T03:03:50.980Z,7.05
2022-07-26T03:06:19.529Z,7.78
2022-07-26T03:08:47.779Z,7.55
2022-07-26T03:11:14.716Z,6.68
2022-07-26T03:13:41.943Z,7.85
2022-07-26T03:16:08.942Z,8.18
2022-07-26T03:18:36.185Z,7.85
2022-07-26T03:21:03.374Z,8.57
2022-07-26T03:23:33.490Z,8.38
2022-07-26T03:26:02.287Z,8.48
2022-07-26T03:28:33.826Z,8.82
2022-07-26T03:31:01.184Z,8.40
2022-07-26T03:33:29.558Z,9.15
2022-07-26T03:35:56.764Z,8.48
2022-07-26T03:38:23.682Z,8.02
2022-07-26T03:40:50.741Z,8.88
2022-07-26T03:43:22.944Z,8.48
2022-07-26T03:45:50.989Z,7.80
2022-07-26T03:48:22.235Z,8.23
2022-07-26T03:50:49.401Z,7.95
2022-07-26T03:53:16.400Z,8.45
2022-07-26T03:56:01.952Z,8.30
2022-07-26T03:58:28.755Z,7.97
2022-07-26T04:00:55.756Z,7.97
2022-07-26T04:03:22.842Z,8.05
2022-07-26T04:05:49.747Z,8.07
2022-07-26T04:08:19.994Z,8.73
2022-07-26T04:10:48.380Z,9.07
2022-07-26T04:13:15.338Z,7.05
2022-07-26T04:15:42.423Z,8.43
2022-07-26T04:18:09.545Z,7.90
2022-07-26T04:20:36.498Z,9.57
2022-07-26T04:23:03.558Z,8.40
2022-07-26T04:25:40.667Z,7.80
2022-07-26T04:28:09.123Z,7.93
2022-07-26T04:30:36.430Z,7.18
2022-07-26T04:33:03.678Z,7.22
2022-07-26T04:35:31.184Z,7.75
2022-07-26T04:37:58.118Z,6.70
2022-07-26T04:40:25.997Z,7.00
2022-07-26T04:42:53.058Z,7.25
2022-07-26T04:45:20.693Z,6.90
2022-07-26T04:47:52.348Z,6.68
2022-07-26T04:50:21.827Z,6.47
2022-07-26T04:52:50.172Z,11.57
2022-07-26T04:55:17.475Z,6.95
2022-07-26T04:57:45.265Z,6.75
2022-07-26T05:00:22.789Z,6.50
2022-07-26T05:02:53.089Z,6.45
2022-07-26T05:05:20.851Z,6.30
2022-07-26T05:07:56.445Z,6.70
2022-07-26T05:10:29.786Z,5.80
2022-07-26T05:12:56.846Z,7.30
2022-07-26T05:15:24.059Z,5.72
2022-07-26T05:17:51.524Z,6.22
2022-07-26T05:20:18.468Z,6.60
2022-07-26T05:22:45.824Z,6.70
2022-07-26T05:25:12.967Z,6.20
2022-07-26T05:27:41.739Z,5.80
2022-07-26T05:30:10.215Z,5.65
2022-07-26T05:32:37.391Z,6.22
2022-07-26T05:35:05.167Z,6.03
2022-07-26T05:37:32.211Z,5.90
2022-07-26T05:39:59.067Z,6.05
2022-07-26T05:42:26.860Z,6.15
2022-07-26T05:44:54.059Z,5.53
2022-07-26T05:47:23.282Z,6.07
2022-07-26T05:49:50.676Z,6.13
2022-07-26T05:52:18.589Z,6.47
2022-07-26T05:54:45.544Z,5.70
2022-07-26T05:57:12.997Z,6.10
2022-07-26T05:59:40.102Z,5.90
2022-07-26T06:02:09.631Z,6.20
2022-07-26T06:04:37.138Z,5.63
2022-07-26T06:07:04.336Z,5.28
2022-07-26T06:09:31.407Z,5.10
2022-07-26T06:11:58.241Z,5.20
2022-07-26T06:14:25.598Z,5.47
2022-07-26T06:16:53.190Z,5.75
2022-07-26T06:19:20.370Z,5.05
2022-07-26T06:21:47.756Z,5.32
2022-07-26T06:24:14.661Z,5.35
2022-07-26T06:26:41.757Z,5.40
2022-07-26T06:29:08.972Z,5.28
2022-07-26T06:31:36.473Z,4.80
2022-07-26T06:34:03.997Z,4.90
2022-07-26T06:36:31.433Z,4.60
2022-07-26T06:38:58.890Z,5.05
2022-07-26T06:41:26.406Z,4.57
2022-07-26T06:43:53.820Z,5.03
2022-07-26T06:46:21.487Z,4.90
2022-07-26T06:48:53.010Z,5.18
2022-07-26T06:51:21.056Z,4.63
2022-07-26T06:53:48.252Z,4.47
2022-07-26T06:56:17.926Z,4.07
2022-07-26T06:58:45.244Z,4.07
2022-07-26T07:01:12.461Z,4.32
2022-07-26T07:03:40.013Z,4.20
2022-07-26T07:06:07.324Z,3.63
2022-07-26T07:08:34.546Z,4.43
2022-07-26T07:11:01.987Z,4.28
2022-07-26T07:13:29.059Z,3.90
2022-07-26T07:15:56.011Z,3.70
2022-07-26T07:18:23.534Z,3.78
2022-07-26T07:20:50.617Z,3.95
2022-07-26T07:23:17.707Z,3.83
2022-07-26T07:25:45.058Z,3.70
2022-07-26T07:28:12.327Z,3.67
2022-07-26T07:30:39.151Z,3.90
2022-07-26T07:33:09.459Z,3.80
2022-07-26T07:35:51.142Z,4.30
2022-07-26T07:38:18.870Z,3.70
2022-07-26T07:40:46.027Z,4.25
2022-07-26T07:43:13.075Z,3.72
2022-07-26T07:45:40.033Z,3.10
2022-07-26T07:48:06.971Z,4.05
2022-07-26T07:50:34.173Z,3.88
2022-07-26T07:53:02.105Z,3.65
2022-07-26T07:55:41.110Z,4.63
2022-07-26T07:58:10.709Z,3.72
2022-07-26T08:00:37.854Z,3.80
2022-07-26T08:03:05.439Z,3.70
2022-07-26T08:05:32.623Z,3.53
2022-07-26T08:07:59.555Z,3.80
2022-07-26T08:10:26.805Z,3.72
2022-07-26T08:12:53.894Z,4.03
2022-07-26T08:15:23.483Z,3.67
2022-07-26T08:17:53.827Z,3.90
2022-07-26T08:20:23.588Z,3.38
2022-07-26T08:22:50.990Z,3.95
2022-07-26T08:25:18.411Z,3.80
2022-07-26T08:28:02.563Z,3.75
2022-07-26T08:30:31.396Z,4.25
2022-07-26T08:32:59.096Z,3.53
2022-07-26T08:35:26.051Z,3.33
2022-07-26T08:37:53.196Z,3.45
2022-07-26T08:40:20.501Z,3.40
2022-07-26T08:42:52.741Z,4.05
2022-07-26T08:45:25.201Z,3.58
2022-07-26T08:48:15.997Z,4.00
2022-07-26T08:50:40.838Z,3.67
2022-07-26T08:53:09.493Z,4.70
2022-07-26T08:56:04.436Z,3.40
2022-07-26T08:58:24.251Z,3.63
2022-07-26T09:01:08.755Z,3.70
2022-07-26T09:03:39.147Z,4.10
2022-07-26T09:06:13.501Z,4.00
2022-07-26T09:08:40.795Z,3.95
2022-07-26T09:11:25.967Z,3.50
2022-07-26T09:13:59.119Z,4.80
2022-07-26T09:16:28.295Z,3.90
2022-07-26T09:19:13.753Z,4.30
2022-07-26T09:21:40.589Z,5.13
2022-07-26T09:24:07.860Z,3.90
2022-07-26T09:26:34.823Z,4.20
2022-07-26T09:29:05.382Z,3.92
2022-07-26T09:31:33.230Z,3.70
2022-07-26T09:34:00.300Z,4.22
2022-07-26T09:36:28.257Z,3.70
2022-07-26T09:38:59.134Z,3.90
2022-07-26T09:41:35.148Z,3.75
2022-07-26T09:44:05.647Z,4.60
2022-07-26T09:46:35.692Z,4.20
2022-07-26T09:49:19.424Z,4.50
2022-07-26T09:51:49.567Z,4.80
2022-07-26T09:54:31.622Z,4.22
2022-07-26T09:56:59.270Z,4.07
2022-07-26T09:59:28.116Z,4.18
2022-07-26T10:01:57.825Z,4.47
2022-07-26T10:04:25.904Z,4.90
2022-07-26T10:06:53.237Z,4.82
2022-07-26T10:09:22.989Z,3.97
2022-07-26T10:11:56.514Z,4.38
2022-07-26T10:14:47.998Z,4.50
2022-07-26T10:17:30.978Z,4.40
2022-07-26T10:20:16.840Z,4.43
2022-07-26T10:22:49.001Z,4.80
2022-07-26T10:27:52.418Z,4.43
2022-07-26T10:30:19.316Z,4.70
2022-07-26T10:33:01.658Z,4.72
2022-07-26T10:35:34.686Z,5.00
2022-07-26T10:38:06.003Z,4.80
2022-07-26T10:40:34.052Z,4.60
2022-07-26T10:43:40.205Z,4.82
2022-07-26T10:46:13.358Z,5.60
2022-07-26T10:49:03.643Z,5.35
2022-07-26T10:51:36.618Z,4.72
2022-07-26T10:54:06.024Z,5.70
2022-07-26T10:56:34.302Z,4.90
2022-07-26T10:59:03.766Z,4.90
2022-07-26T11:01:38.579Z,4.93
2022-07-26T11:04:17.520Z,5.00
2022-07-26T11:06:45.619Z,4.47
2022-07-26T11:09:13.233Z,4.47
2022-07-26T11:11:46.319Z,4.25
2022-07-26T11:14:17.362Z,4.82
2022-07-26T11:16:47.990Z,4.80
2022-07-26T11:19:26.110Z,5.03
2022-07-26T11:21:59.223Z,4.72
2022-07-26T11:24:27.511Z,4.63
2022-07-26T11:26:55.567Z,4.78
2022-07-26T11:29:38.852Z,5.30
2022-07-26T11:32:18.530Z,4.97
2022-07-26T11:34:46.784Z,5.15
2022-07-26T11:37:14.376Z,5.10
2022-07-26T11:39:41.396Z,5.50
2022-07-26T11:42:19.613Z,5.25
2022-07-26T11:44:48.767Z,4.78
2022-07-26T11:47:24.245Z,5.25
2022-07-26T11:50:21.952Z,5.32
2022-07-26T11:52:41.942Z,5.47
2022-07-26T11:55:09.746Z,5.55
2022-07-26T11:57:36.712Z,5.10
2022-07-26T12:00:05.947Z,5.45
2022-07-26T12:02:39.703Z,5.30
2022-07-26T12:05:21.211Z,5.22
2022-07-26T12:08:00.639Z,5.63
2022-07-26T12:10:28.656Z,5.40
2022-07-26T12:13:13.840Z,5.55
2022-07-26T12:15:52.611Z,5.18
2022-07-26T12:18:28.613Z,6.05
2022-07-26T12:21:04.437Z,6.68
2022-07-26T12:23:48.635Z,6.25
2022-07-26T12:26:27.340Z,6.50
2022-07-26T12:28:56.541Z,7.53
2022-07-26T12:31:29.030Z,8.05
2022-07-26T12:33:56.602Z,8.60
2022-07-26T12:36:27.506Z,8.93
2022-07-26T12:39:00.340Z,9.23
2022-07-26T12:41:32.753Z,9.77
2022-07-26T12:44:00.111Z,9.43
2022-07-26T12:46:27.319Z,9.75
2022-07-26T12:48:59.660Z,10.00
2022-07-26T12:51:27.067Z,9.10
2022-07-26T12:53:53.949Z,8.68
2022-07-26T12:56:21.001Z,9.18
2022-07-26T12:58:47.983Z,9.50
2022-07-26T13:01:14.943Z,8.98
2022-07-26T13:03:42.174Z,11.13
2022-07-26T13:06:09.188Z,10.05
2022-07-26T13:08:36.042Z,10.70
2022-07-26T13:11:03.130Z,11.32
2022-07-26T13:13:30.189Z,11.63
2022-07-26T13:15:57.019Z,15.20
2022-07-26T13:18:24.113Z,15.75
2022-07-26T13:20:50.982Z,15.80
2022-07-26T13:23:21.429Z,16.52
2022-07-26T13:25:49.728Z,16.48
2022-07-26T13:28:17.482Z,16.98
2022-07-26T13:30:45.232Z,16.80
2022-07-26T13:33:12.646Z,18.83
2022-07-26T13:35:41.094Z,18.38
2022-07-26T13:38:09.070Z,18.02
2022-07-26T13:40:36.670Z,19.23
2022-07-26T13:43:04.745Z,20.88
2022-07-26T13:45:31.818Z,21.88
2022-07-26T13:47:59.661Z,21.02
2022-07-26T13:50:27.851Z,20.60
2022-07-26T13:52:56.455Z,22.20
2022-07-26T13:55:24.376Z,21.52
2022-07-26T13:57:56.563Z,22.90
2022-07-26T14:00:29.568Z,21.42
2022-07-26T14:03:00.752Z,19.60
2022-07-26T14:05:28.737Z,18.73
2022-07-26T14:07:56.088Z,19.77
2022-07-26T14:10:24.216Z,16.48
2022-07-26T14:12:52.617Z,16.85
2022-07-26T14:15:22.693Z,16.88
2022-07-26T14:17:53.222Z,17.65
2022-07-26T14:20:21.358Z,17.17
2022-07-26T14:22:48.915Z,15.68
2022-07-26T14:25:15.781Z,14.13
2022-07-26T14:27:42.906Z,13.90
2022-07-26T14:30:10.317Z,11.93
2022-07-26T14:32:37.244Z,11.45
2022-07-26T14:35:05.304Z,11.30
2022-07-26T14:37:43.810Z,10.57
2022-07-26T14:40:17.307Z,11.88
2022-07-26T14:42:45.570Z,11.40
2022-07-26T14:45:13.819Z,11.27
2022-07-26T14:47:41.249Z,13.27
2022-07-26T14:50:09.430Z,12.25
2022-07-26T14:52:40.724Z,11.68
2022-07-26T14:55:09.369Z,13.10
2022-07-26T14:57:39.624Z,12.38
2022-07-26T15:00:09.745Z,12.07
2022-07-26T15:02:40.933Z,12.02
2022-07-26T15:05:08.925Z,11.98
2022-07-26T15:07:36.063Z,10.95
2022-07-26T15:10:04.651Z,11.15
2022-07-26T15:12:31.987Z,10.43
2022-07-26T15:14:58.863Z,9.27
2022-07-26T15:17:25.907Z,9.57
2022-07-26T15:19:52.944Z,8.80
2022-07-26T15:22:19.998Z,11.15
2022-07-26T15:24:47.272Z,8.10
2022-07-26T15:27:14.195Z,8.10
2022-07-26T15:29:41.988Z,7.20
2022-07-26T15:32:09.345Z,7.55
2022-07-26T15:34:36.325Z,6.63
2022-07-26T15:37:03.184Z,6.93
2022-07-26T15:39:30.439Z,5.57
2022-07-26T15:42:02.625Z,4.57
2022-07-26T15:44:33.605Z,4.22
2022-07-26T15:47:01.330Z,3.67
2022-07-26T15:49:28.408Z,3.40
2022-07-26T15:51:55.535Z,3.58
2022-07-26T15:54:22.495Z,3.65
2022-07-26T15:56:50.224Z,3.50
2022-07-26T15:59:17.442Z,4.65
2022-07-26T16:01:44.534Z,3.80
2022-07-26T16:04:11.904Z,3.80
2022-07-26T16:06:39.637Z,3.65
2022-07-26T16:09:17.369Z,4.03
2022-07-26T16:11:45.946Z,3.75
2022-07-26T16:14:12.763Z,3.80
2022-07-26T16:16:39.681Z,3.15
2022-07-26T16:19:07.096Z,3.33
2022-07-26T16:21:34.078Z,3.70
2022-07-26T16:24:06.417Z,4.00
2022-07-26T16:26:34.603Z,3.70
2022-07-26T16:29:01.724Z,3.25
2022-07-26T16:31:28.795Z,3.30
2022-07-26T16:33:55.825Z,3.25
2022-07-26T16:36:22.706Z,4.10
2022-07-26T16:38:49.609Z,4.03
2022-07-26T16:41:16.965Z,3.85
2022-07-26T16:43:44.210Z,4.50
2022-07-26T16:46:11.297Z,4.97
2022-07-26T16:48:38.892Z,5.35
2022-07-26T16:51:06.101Z,5.40
2022-07-26T16:53:33.275Z,6.03
2022-07-26T16:56:00.510Z,5.65
2022-07-26T16:58:27.661Z,5.80
2022-07-26T17:00:54.555Z,6.07
2022-07-26T17:03:21.902Z,5.68
2022-07-26T17:05:48.808Z,5.30
2022-07-26T17:08:15.672Z,5.90
2022-07-26T17:10:43.414Z,5.97
2022-07-26T17:13:10.383Z,6.18
2022-07-26T17:15:37.510Z,5.85
2022-07-26T17:18:04.854Z,6.53
2022-07-26T17:20:31.793Z,6.53
2022-07-26T17:22:58.769Z,6.55
2022-07-26T17:25:25.897Z,6.95
2022-07-26T17:27:53.193Z,7.15
2022-07-26T17:30:20.484Z,7.10
2022-07-26T17:32:47.958Z,8.52
2022-07-26T17:35:15.060Z,8.90
2022-07-26T17:37:42.064Z,9.38
2022-07-26T17:40:11.026Z,9.35
2022-07-26T17:42:38.871Z,9.23
2022-07-26T17:45:06.742Z,9.82
2022-07-26T17:47:33.928Z,10.10
2022-07-26T17:50:33.992Z,10.45
2022-07-26T17:52:51.787Z,11.07
2022-07-26T17:55:19.441Z,10.98
2022-07-26T17:57:48.205Z,11.65
2022-07-26T18:00:17.819Z,11.80
2022-07-26T18:02:44.763Z,11.38
2022-07-26T18:05:11.710Z,10.82
2022-07-26T18:07:39.750Z,10.52
2022-07-26T18:10:07.067Z,11.18
2022-07-26T18:12:33.946Z,11.45
2022-07-26T18:15:00.973Z,11.15
2022-07-26T18:17:27.920Z,10.43
2022-07-26T18:19:54.819Z,10.95
2022-07-26T18:22:23.244Z,10.27
2022-07-26T18:24:50.226Z,12.93
2022-07-26T18:27:17.154Z,10.05
2022-07-26T18:29:44.251Z,9.77
2022-07-26T18:32:11.322Z,9.43
2022-07-26T18:34:38.372Z,9.73
2022-07-26T18:37:05.382Z,9.30
2022-07-26T18:39:33.191Z,8.75
2022-07-26T18:42:00.645Z,8.35
2022-07-26T18:44:27.849Z,9.23
2022-07-26T18:46:56.359Z,8.82
2022-07-26T18:49:27.235Z,8.15
2022-07-26T18:52:04.250Z,8.02
2022-07-26T18:54:35.874Z,7.80
2022-07-26T18:57:03.212Z,8.05
2022-07-26T18:59:31.145Z,7.55
2022-07-26T19:01:59.926Z,7.78
2022-07-26T19:04:27.958Z,7.93
2022-07-26T19:06:56.565Z,8.38
2022-07-26T19:09:23.855Z,7.85
2022-07-26T19:11:51.389Z,7.70
2022-07-26T19:14:18.592Z,7.10
2022-07-26T19:16:45.411Z,7.10
2022-07-26T19:19:12.697Z,7.82
2022-07-26T19:21:44.863Z,7.90
2022-07-26T19:24:11.793Z,7.78
2022-07-26T19:26:39.011Z,7.82
2022-07-26T19:29:05.888Z,7.35
2022-07-26T19:31:33.282Z,8.15
2022-07-26T19:34:00.499Z,8.40
2022-07-26T19:36:27.365Z,8.02
2022-07-26T19:38:56.816Z,8.20
2022-07-26T19:41:24.005Z,8.23
2022-07-26T19:43:50.884Z,8.27
2022-07-26T19:46:17.849Z,8.65
2022-07-26T19:48:45.203Z,9.55
2022-07-26T19:51:12.203Z,7.72
2022-07-26T19:53:38.999Z,8.52
2022-07-26T19:56:06.355Z,8.25
2022-07-26T19:58:33.491Z,8.75
2022-07-26T20:01:00.794Z,8.40
2022-07-26T20:03:28.160Z,8.68
2022-07-26T20:05:56.866Z,8.45
2022-07-26T20:08:24.437Z,8.10
2022-07-26T20:10:51.725Z,8.30
2022-07-26T20:13:18.605Z,8.45
2022-07-26T20:15:47.339Z,8.60
2022-07-26T20:18:14.728Z,9.25
2022-07-26T20:20:41.633Z,8.40
2022-07-26T20:23:11.107Z,8.63
2022-07-26T20:25:38.194Z,9.23
2022-07-26T20:28:05.282Z,8.98
2022-07-26T20:30:32.164Z,8.32
2022-07-26T20:32:59.187Z,8.15
2022-07-26T20:35:26.105Z,8.77
2022-07-26T20:37:53.305Z,8.80
2022-07-26T20:40:20.999Z,9.07
2022-07-26T20:42:50.237Z,8.98
2022-07-26T20:45:17.708Z,9.05
2022-07-26T20:47:44.901Z,9.82
2022-07-26T20:50:12.191Z,9.38
2022-07-26T20:52:39.936Z,9.60
2022-07-26T20:55:08.236Z,9.40
2022-07-26T20:57:35.793Z,9.07
2022-07-26T21:00:06.636Z,8.85
2022-07-26T21:02:33.923Z,9.77
2022-07-26T21:05:00.834Z,9.27
2022-07-26T21:07:55.135Z,9.15
2022-07-26T21:10:14.921Z,9.82
2022-07-26T21:12:42.757Z,9.75
2022-07-26T21:15:10.338Z,9.35
2022-07-26T21:17:38.133Z,9.57
2022-07-26T21:20:05.900Z,9.43
2022-07-26T21:22:33.315Z,10.98
2022-07-26T21:25:00.466Z,9.85
2022-07-26T21:27:27.265Z,9.38
2022-07-26T21:29:54.160Z,9.10
2022-07-26T21:32:21.396Z,9.98
2022-07-26T21:34:48.359Z,11.70
2022-07-26T21:37:15.233Z,9.98
2022-07-26T21:39:42.690Z,10.13
2022-07-26T21:42:09.552Z,10.25
2022-07-26T21:44:36.330Z,10.35
2022-07-26T21:47:05.823Z,10.77
2022-07-26T21:49:33.442Z,10.75
2022-07-26T21:52:00.379Z,10.15
2022-07-26T21:54:27.461Z,9.98
2022-07-26T21:56:54.406Z,10.95
2022-07-26T21:59:21.439Z,10.27
2022-07-26T22:01:48.576Z,11.05
2022-07-26T22:04:17.215Z,10.50
2022-07-26T22:06:45.385Z,10.38
2022-07-26T22:09:12.913Z,9.75
2022-07-26T22:11:40.111Z,10.82
2022-07-26T22:14:08.555Z,10.85
2022-07-26T22:16:35.857Z,11.90
2022-07-26T22:19:03.083Z,10.88
2022-07-26T22:21:29.898Z,11.00
2022-07-26T22:23:57.037Z,10.55
2022-07-26T22:26:27.002Z,11.15
2022-07-26T22:28:53.901Z,11.60
2022-07-26T22:31:21.208Z,11.50
2022-07-26T22:33:48.458Z,11.35
2022-07-26T22:36:17.658Z,11.98
2022-07-26T22:38:48.244Z,10.90
2022-07-26T22:41:15.047Z,10.88
2022-07-26T22:43:42.041Z,11.80
2022-07-26T22:46:09.184Z,11.48
2022-07-26T22:48:38.699Z,11.40
2022-07-26T22:51:06.297Z,11.00
2022-07-26T22:53:33.352Z,11.18
2022-07-26T22:56:00.288Z,10.32
2022-07-26T22:58:27.192Z,11.23
2022-07-26T23:00:54.374Z,11.57
2022-07-26T23:03:22.002Z,11.60
2022-07-26T23:05:50.609Z,12.00
2022-07-26T23:11:07.011Z,11.32
2022-07-26T23:13:34.148Z,11.07
2022-07-26T23:16:01.976Z,11.00
2022-07-26T23:18:30.924Z,10.73
2022-07-26T23:20:58.010Z,10.85
2022-07-26T23:23:29.320Z,10.77
2022-07-26T23:25:58.164Z,10.52
2022-07-26T23:28:37.311Z,11.70
2022-07-26T23:31:07.816Z,11.02
2022-07-26T23:33:52.482Z,11.02
2022-07-26T23:36:26.426Z,11.40
2022-07-26T23:38:58.469Z,11.35
2022-07-26T23:41:26.584Z,10.95
2022-07-26T23:43:54.615Z,12.13
2022-07-26T23:46:22.606Z,11.80
2022-07-26T23:48:50.194Z,12.25
2022-07-26T23:51:17.920Z,12.07
2022-07-26T23:53:45.519Z,11.88
2022-07-26T23:56:12.743Z,12.40
2022-07-26T23:58:39.771Z,11.30
